createdAt,value
2023-04-30T00:01:13.225Z,5.57
2023-04-30T00:03:33.496Z,6.28
2023-04-30T00:05:53.733Z,5.53
2023-04-30T00:08:14.095Z,4.78
2023-04-30T00:10:34.105Z,5.15
2023-04-30T00:12:54.599Z,4.47
2023-04-30T00:15:14.655Z,5.43
2023-04-30T00:17:35.061Z,5.55
2023-04-30T00:19:56.185Z,5.50
2023-04-30T00:22:16.657Z,5.38
2023-04-30T00:24:36.930Z,5.20
2023-04-30T00:26:57.268Z,5.57
2023-04-30T00:29:17.542Z,5.63
2023-04-30T00:31:37.936Z,5.28
2023-04-30T00:33:58.408Z,4.60
2023-04-30T00:36:18.700Z,5.30
2023-04-30T00:38:39.487Z,4.57
2023-04-30T00:41:00.271Z,4.93
2023-04-30T00:43:20.769Z,6.30
2023-04-30T00:45:40.971Z,5.13
2023-04-30T00:48:01.697Z,5.13
2023-04-30T00:50:22.569Z,5.05
2023-04-30T00:52:44.171Z,4.38
2023-04-30T00:55:04.281Z,5.03
2023-04-30T00:57:25.265Z,5.47
2023-04-30T00:59:45.928Z,5.90
2023-04-30T01:02:06.394Z,3.83
2023-04-30T01:04:26.802Z,4.88
2023-04-30T01:06:46.923Z,5.22
2023-04-30T01:09:07.572Z,5.18
2023-04-30T01:11:37.014Z,5.35
2023-04-30T01:14:23.200Z,6.25
2023-04-30T01:16:47.282Z,5.22
2023-04-30T01:19:26.497Z,4.38
2023-04-30T01:21:47.274Z,5.80
2023-04-30T01:24:10.347Z,5.28
2023-04-30T01:26:45.994Z,5.72
2023-04-30T01:29:06.720Z,5.38
2023-04-30T01:31:28.615Z,5.47
2023-04-30T01:33:48.742Z,5.57
2023-04-30T01:36:27.734Z,5.53
2023-04-30T01:38:48.158Z,4.63
2023-04-30T01:41:28.073Z,6.63
2023-04-30T01:43:57.514Z,4.78
2023-04-30T01:46:29.673Z,4.78
2023-04-30T01:48:50.061Z,5.03
2023-04-30T01:51:13.578Z,5.55
2023-04-30T01:53:40.293Z,5.18
2023-04-30T01:56:05.938Z,5.05
2023-04-30T01:58:26.840Z,4.93
2023-04-30T02:00:47.282Z,4.97
2023-04-30T02:03:07.670Z,5.30
2023-04-30T02:05:28.356Z,5.28
2023-04-30T02:07:50.246Z,4.38
2023-04-30T02:10:13.595Z,4.38
2023-04-30T02:12:33.522Z,5.00
2023-04-30T02:14:53.549Z,3.97
2023-04-30T02:17:13.842Z,3.88
2023-04-30T02:19:33.922Z,4.35
2023-04-30T02:21:54.158Z,5.00
2023-04-30T02:24:14.251Z,4.68
2023-04-30T02:26:34.313Z,4.20
2023-04-30T02:28:54.644Z,4.55
2023-04-30T02:31:14.676Z,4.65
2023-04-30T02:33:35.163Z,6.22
2023-04-30T02:35:55.932Z,5.80
2023-04-30T02:38:16.265Z,5.57
2023-04-30T02:40:36.460Z,4.53
2023-04-30T02:42:56.614Z,4.75
2023-04-30T02:45:16.613Z,5.55
2023-04-30T02:47:37.048Z,6.60
2023-04-30T02:49:57.672Z,6.00
2023-04-30T02:52:18.064Z,5.95
2023-04-30T02:54:38.141Z,5.70
2023-04-30T02:56:58.396Z,5.47
2023-04-30T02:59:18.631Z,5.35
2023-04-30T03:01:39.053Z,5.85
2023-04-30T03:03:59.077Z,5.30
2023-04-30T03:06:19.291Z,5.80
2023-04-30T03:08:39.614Z,5.63
2023-04-30T03:11:00.546Z,5.20
2023-04-30T03:13:21.098Z,5.40
2023-04-30T03:15:41.039Z,5.40
2023-04-30T03:18:01.598Z,5.88
2023-04-30T03:20:22.249Z,5.45
2023-04-30T03:22:42.452Z,5.32
2023-04-30T03:25:02.712Z,6.78
2023-04-30T03:27:22.702Z,5.35
2023-04-30T03:29:42.813Z,5.25
2023-04-30T03:32:03.527Z,5.00
2023-04-30T03:34:23.858Z,5.22
2023-04-30T03:36:44.203Z,6.05
2023-04-30T03:39:04.587Z,4.63
2023-04-30T03:41:25.294Z,4.55
2023-04-30T03:43:45.712Z,4.60
2023-04-30T03:46:06.417Z,4.85
2023-04-30T03:48:27.040Z,4.53
2023-04-30T03:50:47.026Z,4.63
2023-04-30T03:53:07.664Z,4.95
2023-04-30T03:55:27.922Z,5.35
2023-04-30T03:57:48.224Z,5.53
2023-04-30T04:00:09.647Z,5.32
2023-04-30T04:02:31.693Z,4.72
2023-04-30T04:04:52.393Z,6.00
2023-04-30T04:07:12.448Z,5.40
2023-04-30T04:09:32.632Z,5.07
2023-04-30T04:11:52.876Z,3.88
2023-04-30T04:14:13.140Z,6.18
2023-04-30T04:16:33.756Z,4.50
2023-04-30T04:18:54.264Z,5.43
2023-04-30T04:21:14.338Z,4.47
2023-04-30T04:23:34.362Z,4.68
2023-04-30T04:25:54.761Z,6.28
2023-04-30T04:28:15.337Z,5.13
2023-04-30T04:30:36.055Z,5.50
2023-04-30T04:32:57.002Z,5.00
2023-04-30T04:35:18.561Z,4.35
2023-04-30T04:37:38.798Z,5.38
2023-04-30T04:39:59.275Z,5.60
2023-04-30T04:42:19.853Z,5.03
2023-04-30T04:44:40.705Z,4.43
2023-04-30T04:47:03.707Z,5.10
2023-04-30T04:49:23.954Z,5.78
2023-04-30T04:51:44.250Z,5.88
2023-04-30T04:54:04.370Z,5.78
2023-04-30T04:56:24.586Z,6.25
2023-04-30T04:58:45.086Z,5.07
2023-04-30T05:01:05.447Z,5.57
2023-04-30T05:03:29.918Z,5.03
2023-04-30T05:05:51.099Z,6.20
2023-04-30T05:08:11.320Z,4.65
2023-04-30T05:10:31.528Z,4.82
2023-04-30T05:12:51.619Z,5.22
2023-04-30T05:15:12.041Z,4.95
2023-04-30T05:17:32.526Z,5.57
2023-04-30T05:19:53.492Z,5.57
2023-04-30T05:22:13.998Z,5.80
2023-04-30T05:24:34.320Z,5.32
2023-04-30T05:26:55.424Z,5.25
2023-04-30T05:29:15.586Z,4.47
2023-04-30T05:31:36.216Z,4.55
2023-04-30T05:33:56.627Z,4.70
2023-04-30T05:36:16.943Z,5.15
2023-04-30T05:38:37.698Z,4.75
2023-04-30T05:40:58.195Z,5.25
2023-04-30T05:43:18.469Z,5.35
2023-04-30T05:45:38.635Z,4.25
2023-04-30T05:47:58.936Z,5.22
2023-04-30T05:50:19.695Z,3.97
2023-04-30T05:52:40.395Z,5.28
2023-04-30T05:55:00.708Z,4.35
2023-04-30T05:57:21.179Z,5.30
2023-04-30T05:59:41.591Z,4.68
2023-04-30T06:02:01.896Z,4.70
2023-04-30T06:04:21.975Z,4.60
2023-04-30T06:06:42.541Z,4.40
2023-04-30T06:09:02.879Z,3.63
2023-04-30T06:11:25.116Z,4.55
2023-04-30T06:13:47.976Z,4.32
2023-04-30T06:16:08.389Z,4.30
2023-04-30T06:18:28.812Z,3.75
2023-04-30T06:20:48.941Z,4.18
2023-04-30T06:23:09.386Z,3.88
2023-04-30T06:25:29.547Z,3.90
2023-04-30T06:27:51.022Z,3.85
2023-04-30T06:30:11.745Z,4.13
2023-04-30T06:32:32.013Z,4.03
2023-04-30T06:34:52.141Z,2.95
2023-04-30T06:37:12.626Z,3.08
2023-04-30T06:39:32.820Z,2.70
2023-04-30T06:41:53.134Z,3.00
2023-04-30T06:44:13.493Z,2.38
2023-04-30T06:46:34.171Z,2.63
2023-04-30T06:48:54.322Z,2.75
2023-04-30T06:51:14.754Z,2.30
2023-04-30T06:53:34.897Z,1.92
2023-04-30T06:55:55.250Z,1.90
2023-04-30T06:58:15.385Z,1.30
2023-04-30T07:00:35.576Z,1.30
2023-04-30T07:02:56.632Z,1.15
2023-04-30T07:05:16.848Z,1.20
2023-04-30T07:07:37.316Z,1.20
2023-04-30T07:09:58.284Z,1.63
2023-04-30T07:12:18.596Z,1.30
2023-04-30T07:14:38.946Z,1.30
2023-04-30T07:16:58.814Z,1.20
2023-04-30T07:19:18.984Z,1.30
2023-04-30T07:21:39.205Z,1.20
2023-04-30T07:23:59.243Z,1.10
2023-04-30T07:26:19.527Z,1.17
2023-04-30T07:28:39.311Z,1.10
2023-04-30T07:31:00.043Z,1.10
2023-04-30T07:33:19.991Z,1.20
2023-04-30T07:35:40.741Z,1.10
2023-04-30T07:38:00.995Z,1.10
2023-04-30T07:40:29.168Z,1.20
2023-04-30T07:42:56.199Z,1.25
2023-04-30T07:45:16.293Z,1.65
2023-04-30T07:47:36.798Z,1.00
2023-04-30T07:49:57.451Z,0.90
2023-04-30T07:52:17.980Z,1.00
2023-04-30T07:54:39.391Z,1.00
2023-04-30T07:56:59.969Z,1.08
2023-04-30T07:59:23.947Z,1.17
2023-04-30T08:01:44.051Z,1.33
2023-04-30T08:04:04.304Z,1.00
2023-04-30T08:06:28.927Z,1.50
2023-04-30T08:08:50.468Z,1.20
2023-04-30T08:11:11.595Z,1.00
2023-04-30T08:13:31.759Z,1.40
2023-04-30T08:15:51.919Z,1.10
2023-04-30T08:18:12.479Z,1.00
2023-04-30T08:20:32.830Z,1.00
2023-04-30T08:22:53.348Z,1.35
2023-04-30T08:25:13.519Z,0.90
2023-04-30T08:27:34.126Z,1.00
2023-04-30T08:29:54.456Z,1.00
2023-04-30T08:32:15.223Z,0.90
2023-04-30T08:34:35.604Z,0.90
2023-04-30T08:36:55.887Z,1.00
2023-04-30T08:39:16.017Z,0.90
2023-04-30T08:41:36.754Z,0.95
2023-04-30T08:44:01.379Z,1.00
2023-04-30T08:46:23.498Z,1.00
2023-04-30T08:48:44.515Z,1.00
2023-04-30T08:51:04.872Z,0.90
2023-04-30T08:53:25.393Z,0.90
2023-04-30T08:55:46.019Z,0.90
2023-04-30T08:58:06.846Z,1.63
2023-04-30T09:00:27.439Z,1.00
2023-04-30T09:02:49.570Z,0.90
2023-04-30T09:05:11.585Z,1.00
2023-04-30T09:07:33.712Z,1.08
2023-04-30T09:09:54.389Z,1.05
2023-04-30T09:12:18.839Z,1.00
2023-04-30T09:14:40.600Z,0.90
2023-04-30T09:17:00.992Z,1.00
2023-04-30T09:19:28.044Z,0.90
2023-04-30T09:21:48.208Z,0.90
2023-04-30T09:24:08.422Z,1.10
2023-04-30T09:26:36.850Z,0.90
2023-04-30T09:28:58.651Z,1.10
2023-04-30T09:31:21.884Z,0.85
2023-04-30T09:33:48.018Z,0.80
2023-04-30T09:36:11.901Z,0.90
2023-04-30T09:38:32.817Z,0.93
2023-04-30T09:40:52.971Z,0.82
2023-04-30T09:43:12.921Z,0.90
2023-04-30T09:46:00.173Z,0.80
2023-04-30T09:48:24.629Z,0.90
2023-04-30T09:50:46.592Z,0.90
2023-04-30T09:53:10.286Z,1.33
2023-04-30T09:55:30.731Z,0.90
2023-04-30T09:57:50.897Z,0.95
2023-04-30T10:00:11.513Z,0.80
2023-04-30T10:02:32.229Z,0.80
2023-04-30T10:04:58.191Z,0.80
2023-04-30T10:07:22.201Z,0.70
2023-04-30T10:09:52.119Z,0.80
2023-04-30T10:12:16.156Z,0.88
2023-04-30T10:14:36.759Z,0.80
2023-04-30T10:17:17.534Z,0.90
2023-04-30T10:19:42.719Z,1.00
2023-04-30T10:22:03.009Z,0.90
2023-04-30T10:24:23.446Z,0.90
2023-04-30T10:26:43.921Z,0.80
2023-04-30T10:29:04.120Z,0.90
2023-04-30T10:31:24.427Z,0.90
2023-04-30T10:34:03.622Z,3.78
2023-04-30T10:36:40.621Z,2.20
2023-04-30T10:39:01.683Z,1.00
2023-04-30T10:41:21.738Z,0.90
2023-04-30T10:43:41.748Z,1.05
2023-04-30T10:46:02.213Z,0.90
2023-04-30T10:48:26.481Z,0.90
2023-04-30T10:50:46.564Z,0.90
2023-04-30T10:53:07.058Z,1.15
2023-04-30T10:55:29.647Z,0.85
2023-04-30T11:00:13.764Z,0.80
2023-04-30T11:02:46.593Z,1.00
2023-04-30T11:05:07.078Z,0.80
2023-04-30T11:07:28.352Z,0.90
2023-04-30T11:09:48.613Z,0.90
2023-04-30T11:12:12.144Z,0.90
2023-04-30T11:14:33.453Z,0.80
2023-04-30T11:16:53.779Z,0.80
2023-04-30T11:19:14.276Z,0.80
2023-04-30T11:21:34.709Z,0.80
2023-04-30T11:24:03.129Z,0.82
2023-04-30T11:26:24.073Z,0.80
2023-04-30T11:28:51.881Z,0.80
2023-04-30T11:31:13.630Z,0.80
2023-04-30T11:33:35.601Z,0.73
2023-04-30T11:35:56.165Z,0.70
2023-04-30T11:38:17.399Z,0.80
2023-04-30T11:40:37.701Z,0.80
2023-04-30T11:42:57.898Z,0.80
2023-04-30T11:45:20.158Z,0.80
2023-04-30T11:47:41.692Z,0.80
2023-04-30T11:50:02.494Z,0.80
2023-04-30T11:52:26.173Z,0.90
2023-04-30T11:54:46.536Z,0.80
2023-04-30T11:57:06.871Z,0.80
2023-04-30T11:59:27.005Z,0.80
2023-04-30T12:01:47.124Z,0.80
2023-04-30T12:04:08.465Z,0.90
2023-04-30T12:06:29.527Z,1.70
2023-04-30T12:08:50.492Z,0.93
2023-04-30T12:11:21.067Z,0.90
2023-04-30T12:13:49.914Z,0.90
2023-04-30T12:16:10.010Z,0.90
2023-04-30T12:18:33.095Z,0.90
2023-04-30T12:20:54.048Z,0.80
2023-04-30T12:23:14.162Z,0.80
2023-04-30T12:25:40.812Z,0.80
2023-04-30T12:28:01.594Z,0.80
2023-04-30T12:30:24.270Z,0.90
2023-04-30T12:32:45.424Z,0.77
2023-04-30T12:35:06.315Z,0.80
2023-04-30T12:37:27.061Z,0.90
2023-04-30T12:39:47.892Z,1.20
2023-04-30T12:42:07.887Z,1.10
2023-04-30T12:44:28.608Z,0.90
2023-04-30T12:46:49.848Z,0.80
2023-04-30T12:49:10.648Z,0.90
2023-04-30T12:51:33.522Z,0.90
2023-04-30T12:53:53.592Z,0.90
2023-04-30T12:56:15.978Z,0.80
2023-04-30T12:58:38.615Z,1.08
2023-04-30T13:00:59.287Z,0.80
2023-04-30T13:03:23.658Z,0.90
2023-04-30T13:05:48.784Z,0.90
2023-04-30T13:08:09.148Z,0.90
2023-04-30T13:10:29.692Z,0.90
2023-04-30T13:12:53.456Z,0.90
2023-04-30T13:15:13.606Z,0.90
2023-04-30T13:17:33.926Z,1.00
2023-04-30T13:19:54.126Z,0.90
2023-04-30T13:22:14.773Z,1.00
2023-04-30T13:24:35.225Z,0.98
2023-04-30T13:26:57.204Z,1.23
2023-04-30T13:29:20.092Z,0.90
2023-04-30T13:31:41.795Z,1.10
2023-04-30T13:34:01.988Z,0.90
2023-04-30T13:36:22.140Z,0.80
2023-04-30T13:38:42.870Z,0.90
2023-04-30T13:41:02.964Z,0.88
2023-04-30T13:43:23.122Z,0.80
2023-04-30T13:45:43.103Z,0.90
2023-04-30T13:48:03.408Z,0.80
2023-04-30T13:50:23.917Z,0.80
2023-04-30T13:52:44.383Z,0.90
2023-04-30T13:55:05.095Z,0.85
2023-04-30T13:57:25.368Z,0.90
2023-04-30T13:59:45.492Z,0.90
2023-04-30T14:02:06.469Z,0.90
2023-04-30T14:04:26.896Z,0.93
2023-04-30T14:06:48.257Z,0.90
2023-04-30T14:09:08.269Z,0.90
2023-04-30T14:11:28.471Z,0.90
2023-04-30T14:13:48.458Z,0.88
2023-04-30T14:16:09.211Z,0.90
2023-04-30T14:18:29.218Z,0.90
2023-04-30T14:20:49.384Z,1.00
2023-04-30T14:23:09.817Z,0.90
2023-04-30T14:25:30.339Z,1.30
2023-04-30T14:27:50.378Z,1.05
2023-04-30T14:30:10.810Z,0.90
2023-04-30T14:32:31.451Z,1.00
2023-04-30T14:34:51.398Z,1.00
2023-04-30T14:37:11.776Z,1.00
2023-04-30T14:39:32.075Z,1.08
2023-04-30T14:41:53.455Z,0.98
2023-04-30T14:44:14.013Z,1.00
2023-04-30T14:46:34.488Z,0.90
2023-04-30T14:48:54.916Z,0.90
2023-04-30T14:51:14.952Z,1.00
2023-04-30T14:53:35.127Z,0.90
2023-04-30T14:55:55.475Z,1.15
2023-04-30T14:58:15.797Z,0.90
2023-04-30T15:00:36.425Z,1.10
2023-04-30T15:02:56.817Z,1.00
2023-04-30T15:05:17.013Z,1.10
2023-04-30T15:07:37.408Z,1.00
2023-04-30T15:09:57.824Z,0.90
2023-04-30T15:12:18.540Z,0.90
2023-04-30T15:14:38.590Z,0.90
2023-04-30T15:16:58.751Z,1.00
2023-04-30T15:19:19.059Z,0.90
2023-04-30T15:21:39.474Z,1.00
2023-04-30T15:23:59.549Z,0.90
2023-04-30T15:26:19.926Z,1.00
2023-04-30T15:28:39.956Z,1.00
2023-04-30T15:31:01.021Z,1.00
2023-04-30T15:33:23.875Z,0.98
2023-04-30T15:35:44.259Z,0.90
2023-04-30T15:38:04.442Z,0.90
2023-04-30T15:40:25.391Z,0.90
2023-04-30T15:42:45.647Z,1.00
2023-04-30T15:45:06.375Z,1.10
2023-04-30T15:47:26.459Z,1.25
2023-04-30T15:49:47.955Z,0.90
2023-04-30T15:52:07.987Z,0.98
2023-04-30T15:54:28.305Z,1.00
2023-04-30T15:56:48.825Z,1.00
2023-04-30T15:59:08.944Z,1.10
2023-04-30T16:01:29.126Z,1.27
2023-04-30T16:03:49.552Z,1.55
2023-04-30T16:06:10.077Z,1.00
2023-04-30T16:08:30.331Z,1.00
2023-04-30T16:10:50.681Z,1.15
2023-04-30T16:13:10.774Z,1.05
2023-04-30T16:15:31.742Z,1.00
2023-04-30T16:17:52.252Z,1.00
2023-04-30T16:20:12.662Z,0.90
2023-04-30T16:22:33.714Z,1.10
2023-04-30T16:24:54.315Z,1.10
2023-04-30T16:27:14.527Z,1.20
2023-04-30T16:29:34.645Z,1.08
2023-04-30T16:31:55.642Z,1.00
2023-04-30T16:34:16.344Z,1.00
2023-04-30T16:36:36.655Z,1.05
2023-04-30T16:38:56.598Z,1.20
2023-04-30T16:41:17.675Z,0.93
2023-04-30T16:43:37.651Z,1.08
2023-04-30T16:45:57.985Z,1.27
2023-04-30T16:48:18.046Z,0.90
2023-04-30T16:50:38.255Z,0.90
2023-04-30T16:52:58.805Z,0.90
2023-04-30T16:55:18.766Z,1.10
2023-04-30T16:57:38.982Z,0.90
2023-04-30T16:59:59.155Z,1.00
2023-04-30T17:02:19.819Z,1.00
2023-04-30T17:04:40.227Z,1.08
2023-04-30T17:07:00.603Z,1.00
2023-04-30T17:09:20.865Z,1.00
2023-04-30T17:11:40.880Z,1.00
2023-04-30T17:14:01.393Z,1.10
2023-04-30T17:16:21.848Z,1.10
2023-04-30T17:18:42.210Z,0.95
2023-04-30T17:21:02.460Z,1.13
2023-04-30T17:23:23.714Z,1.00
2023-04-30T17:25:43.628Z,1.27
2023-04-30T17:28:03.937Z,2.38
2023-04-30T17:30:24.638Z,2.00
2023-04-30T17:32:44.663Z,1.00
2023-04-30T17:35:06.032Z,1.02
2023-04-30T17:37:26.545Z,1.20
2023-04-30T17:39:46.379Z,1.10
2023-04-30T17:42:07.414Z,1.13
2023-04-30T17:44:27.549Z,1.10
2023-04-30T17:46:47.826Z,1.00
2023-04-30T17:49:07.964Z,1.20
2023-04-30T17:51:28.792Z,1.10
2023-04-30T17:53:49.035Z,1.20
2023-04-30T17:56:09.339Z,1.15
2023-04-30T17:58:29.888Z,1.10
2023-04-30T18:00:50.448Z,1.00
2023-04-30T18:03:10.774Z,1.10
2023-04-30T18:05:32.046Z,1.00
2023-04-30T18:07:53.240Z,1.00
2023-04-30T18:10:13.373Z,1.25
2023-04-30T18:12:33.811Z,1.00
2023-04-30T18:14:54.338Z,1.50
2023-04-30T18:17:14.650Z,1.20
2023-04-30T18:19:37.958Z,1.20
2023-04-30T18:21:58.205Z,1.10
2023-04-30T18:24:26.865Z,1.30
2023-04-30T18:26:47.680Z,1.20
2023-04-30T18:29:09.019Z,1.10
2023-04-30T18:31:29.966Z,1.20
2023-04-30T18:33:50.559Z,1.10
2023-04-30T18:36:10.946Z,1.38
2023-04-30T18:38:31.399Z,1.20
2023-04-30T18:40:55.227Z,1.20
2023-04-30T18:43:16.280Z,1.00
2023-04-30T18:45:36.491Z,1.08
2023-04-30T18:47:56.681Z,1.20
2023-04-30T18:50:17.462Z,1.10
2023-04-30T18:52:37.736Z,1.10
2023-04-30T18:54:57.908Z,1.10
2023-04-30T18:57:18.548Z,1.10
2023-04-30T18:59:39.119Z,1.20
2023-04-30T19:01:59.636Z,1.40
2023-04-30T19:04:19.736Z,1.38
2023-04-30T19:06:40.156Z,1.20
2023-04-30T19:09:00.768Z,1.58
2023-04-30T19:11:21.163Z,1.30
2023-04-30T19:13:41.497Z,1.40
2023-04-30T19:16:02.720Z,1.50
2023-04-30T19:18:23.819Z,1.30
2023-04-30T19:20:56.497Z,1.70
2023-04-30T19:23:16.887Z,1.20
2023-04-30T19:25:38.354Z,1.38
2023-04-30T19:27:58.906Z,1.40
2023-04-30T19:30:19.070Z,1.40
2023-04-30T19:32:39.518Z,1.15
2023-04-30T19:35:00.001Z,1.10
2023-04-30T19:37:20.271Z,1.38
2023-04-30T19:39:40.475Z,1.30
2023-04-30T19:42:00.951Z,1.38
2023-04-30T19:44:21.300Z,1.10
2023-04-30T19:46:41.781Z,1.30
2023-04-30T19:49:03.327Z,1.50
2023-04-30T19:51:23.864Z,1.30
2023-04-30T19:53:44.018Z,1.10
2023-04-30T19:56:04.252Z,1.30
2023-04-30T19:58:24.447Z,1.20
2023-04-30T20:00:45.626Z,1.63
2023-04-30T20:03:06.147Z,1.30
2023-04-30T20:05:27.782Z,1.40
2023-04-30T20:07:48.265Z,1.40
2023-04-30T20:10:09.226Z,1.20
2023-04-30T20:12:29.421Z,1.60
2023-04-30T20:14:49.946Z,2.00
2023-04-30T20:17:12.623Z,1.10
2023-04-30T20:19:32.981Z,1.70
2023-04-30T20:21:53.986Z,1.20
2023-04-30T20:24:14.324Z,1.33
2023-04-30T20:26:34.656Z,1.20
2023-04-30T20:28:54.850Z,1.20
2023-04-30T20:31:15.110Z,1.40
2023-04-30T20:33:35.559Z,1.20
2023-04-30T20:35:57.347Z,1.42
2023-04-30T20:38:20.028Z,1.52
2023-04-30T20:40:40.522Z,1.55
2023-04-30T20:43:01.254Z,1.30
2023-04-30T20:45:23.067Z,1.30
2023-04-30T20:47:43.768Z,1.17
2023-04-30T20:50:03.987Z,1.48
2023-04-30T20:52:24.667Z,1.40
2023-04-30T20:54:45.716Z,1.10
2023-04-30T20:57:07.052Z,1.17
2023-04-30T20:59:27.546Z,1.50
2023-04-30T21:01:47.919Z,1.27
2023-04-30T21:04:08.783Z,1.52
2023-04-30T21:06:29.385Z,1.42
2023-04-30T21:08:49.929Z,1.55
2023-04-30T21:11:10.280Z,1.73
2023-04-30T21:13:30.534Z,1.40
2023-04-30T21:15:52.822Z,2.10
2023-04-30T21:18:13.389Z,1.42
2023-04-30T21:20:33.497Z,1.52
2023-04-30T21:22:54.985Z,2.50
2023-04-30T21:25:15.406Z,1.35
2023-04-30T21:27:35.773Z,1.50
2023-04-30T21:29:56.000Z,1.60
2023-04-30T21:32:16.842Z,1.50
2023-04-30T21:34:37.573Z,2.30
2023-04-30T21:36:59.200Z,2.55
2023-04-30T21:39:19.317Z,2.38
2023-04-30T21:41:39.869Z,1.60
2023-04-30T21:44:00.087Z,2.97
2023-04-30T21:46:20.644Z,2.50
2023-04-30T21:48:40.907Z,2.53
2023-04-30T21:51:01.065Z,3.28
2023-04-30T21:53:21.497Z,2.63
2023-04-30T21:55:41.900Z,2.22
2023-04-30T21:58:01.988Z,2.42
2023-04-30T22:00:22.548Z,2.03
2023-04-30T22:02:43.386Z,2.40
2023-04-30T22:05:03.703Z,3.95
2023-04-30T22:07:24.062Z,2.00
2023-04-30T22:09:44.262Z,2.28
2023-04-30T22:12:06.098Z,1.70
2023-04-30T22:14:26.250Z,1.65
2023-04-30T22:16:46.613Z,1.60
2023-04-30T22:19:07.008Z,1.65
2023-04-30T22:21:27.575Z,1.40
2023-04-30T22:23:47.679Z,1.60
2023-04-30T22:26:09.266Z,1.63
2023-04-30T22:28:29.552Z,1.40
2023-04-30T22:30:49.894Z,1.30
2023-04-30T22:33:10.794Z,1.70
2023-04-30T22:35:32.164Z,1.45
2023-04-30T22:37:52.779Z,1.10
2023-04-30T22:40:13.116Z,1.25
2023-04-30T22:42:33.752Z,2.22
2023-04-30T22:44:54.634Z,1.77
2023-04-30T22:47:15.774Z,1.50
2023-04-30T22:49:38.134Z,1.70
2023-04-30T22:51:58.268Z,2.20
2023-04-30T22:54:19.380Z,2.38
2023-04-30T22:56:40.204Z,2.85
2023-04-30T22:59:00.662Z,2.67
2023-04-30T23:01:21.176Z,1.80
2023-04-30T23:03:41.581Z,1.98
2023-04-30T23:06:02.234Z,1.55
2023-04-30T23:08:22.619Z,2.33
2023-04-30T23:10:45.704Z,2.20
2023-04-30T23:13:06.759Z,2.20
2023-04-30T23:15:27.196Z,2.47
2023-04-30T23:17:47.767Z,3.25
2023-04-30T23:20:08.678Z,2.55
2023-04-30T23:22:29.037Z,2.80
2023-04-30T23:24:49.097Z,3.38
2023-04-30T23:27:09.466Z,2.60
2023-04-30T23:29:29.537Z,2.53
2023-04-30T23:31:50.303Z,2.00
2023-04-30T23:34:11.848Z,2.97
2023-04-30T23:36:32.515Z,2.28
2023-04-30T23:38:53.474Z,2.67
2023-04-30T23:41:14.258Z,2.70
2023-04-30T23:43:34.210Z,2.08
2023-04-30T23:45:54.172Z,2.03
2023-04-30T23:48:14.906Z,2.63
2023-04-30T23:50:35.128Z,2.25
2023-04-30T23:52:55.181Z,2.40
2023-04-30T23:55:15.900Z,3.22
2023-04-30T23:57:36.275Z,2.08
2023-04-30T23:59:57.402Z,2.50
